»·PEaware :: N851TX KEYW-KRZZ

N851TX :: KEYW-KRZZ

FLIGHT INFORMATION

Flight Status: Arrived
Operator: Privately registered:
United States
More flights under this callsign
Pilot: Andrew J. (13363)
Aircraft: SOCATA TBM-900
(TBM9)
More flights by this aircraft type
Origin: KEYW Key West Intl
United States
Destination: KRZZ Halifax Co
United States
More flights between these airports :: More routes between these airports
Route: EYW J79 TYI
File this flight plan on PilotEdge
Remarks:
Altitude:
(Current/Filed)
31,000ft
Speed:
(Current/Filed)
307kts
Departed: 16-Jul-18 07:08 PM
Arrived: 16-Jul-18 10:06 PM
Distance/Time
Traveled:
743nm/2:58
Distance/Time
To Go:
Arrived

Flight Plot

Page will automatically refresh every two minutes.

Flight plan parsing failed; only flown route is shown


Map Options




Map Legend


Flown Route
Filed Route
Departure Airport
Arrival Airport
Navaid (VOR, NDB)
Fix

Horizontal Profiles

Position Reports

Time Latitude Longitude Heading Altitude Ground
Speed
16-Jul-18 19:08 24.623710 -81.767942 37 3869ft 163kts
16-Jul-18 19:09 24.657404 -81.739312 38 6017ft 146kts
16-Jul-18 19:10 24.689521 -81.711811 37 8192ft 149kts
16-Jul-18 19:11 24.722341 -81.683693 37 10174ft 153kts
16-Jul-18 19:12 24.756208 -81.654659 37 12007ft 157kts
16-Jul-18 19:13 24.791241 -81.624616 37 13669ft 163kts
16-Jul-18 19:14 24.827341 -81.593627 38 15211ft 168kts
16-Jul-18 19:15 24.864676 -81.561549 38 16631ft 173kts
16-Jul-18 19:16 24.903749 -81.527961 39 18625ft 180kts
16-Jul-18 19:17 24.943535 -81.493717 40 20533ft 185kts
16-Jul-18 19:18 24.984172 -81.458728 42 22284ft 188kts
16-Jul-18 19:19 25.025249 -81.423308 42 23912ft 188kts
16-Jul-18 19:20 25.066534 -81.387660 42 25392ft 189kts
16-Jul-18 19:21 25.107332 -81.352409 42 26707ft 190kts
16-Jul-18 19:22 25.137393 -81.326436 42 27599ft 191kts
16-Jul-18 19:23 25.187162 -81.283155 40 24225ft 354kts
16-Jul-18 19:24 25.266201 -81.214875 40 21782ft 358kts
16-Jul-18 19:25 25.343207 -81.148067 39 20094ft 350kts
16-Jul-18 19:26 25.418948 -81.082243 39 18630ft 343kts
16-Jul-18 19:27 25.493080 -81.017716 39 17312ft 337kts
16-Jul-18 19:28 25.543340 -80.934166 65 16054ft 328kts
16-Jul-18 19:29 25.582919 -80.844281 64 15150ft 316kts
16-Jul-18 19:30 25.620153 -80.759707 65 15152ft 300kts
16-Jul-18 19:31 25.656324 -80.677379 65 15155ft 296kts
16-Jul-18 19:32 25.692354 -80.595225 65 15155ft 295kts
16-Jul-18 19:33 25.728834 -80.511834 64 14260ft 318kts
16-Jul-18 19:34 25.767165 -80.424129 64 12844ft 309kts
16-Jul-18 19:35 25.809253 -80.350511 24 13272ft 262kts
16-Jul-18 19:36 25.867332 -80.329400 16 16041ft 189kts
16-Jul-18 19:37 25.915076 -80.315007 16 18357ft 179kts
16-Jul-18 19:38 25.963684 -80.300551 17 20467ft 185kts
16-Jul-18 19:39 26.013892 -80.285637 18 22567ft 190kts
16-Jul-18 19:40 26.065148 -80.270395 19 24502ft 194kts
16-Jul-18 19:41 26.117324 -80.254861 19 26248ft 197kts
16-Jul-18 19:42 26.170462 -80.239033 20 27839ft 199kts
16-Jul-18 19:43 26.224159 -80.223018 20 29285ft 201kts
16-Jul-18 19:44 26.278388 -80.206832 20 30594ft 203kts
16-Jul-18 19:45 26.335349 -80.189764 19 31191ft 234kts
16-Jul-18 19:46 26.403264 -80.169462 19 31178ft 269kts
16-Jul-18 19:47 26.477870 -80.147138 19 31171ft 286kts
16-Jul-18 19:48 26.555843 -80.123767 18 31167ft 294kts
16-Jul-18 19:49 26.635112 -80.099968 18 31162ft 298kts
16-Jul-18 19:50 26.717568 -80.102140 345 31161ft 311kts
16-Jul-18 19:51 26.799253 -80.134223 344 31156ft 313kts
16-Jul-18 19:52 26.880840 -80.166948 344 31156ft 313kts
16-Jul-18 19:53 26.962644 -80.199817 344 31155ft 313kts
16-Jul-18 19:54 27.044274 -80.232681 343 31154ft 313kts
16-Jul-18 19:55 27.114409 -80.260956 343 31150ft 312kts
16-Jul-18 19:56 27.182403 -80.288398 343 31148ft 312kts
16-Jul-18 19:57 27.277664 -80.326912 343 31147ft 312kts
16-Jul-18 19:58 27.359418 -80.360015 343 31148ft 312kts
16-Jul-18 19:59 27.427041 -80.387434 343 31148ft 312kts
16-Jul-18 20:00 27.508819 -80.420649 343 31148ft 312kts
16-Jul-18 20:01 27.603034 -80.458984 343 31146ft 305kts
16-Jul-18 20:02 27.682215 -80.491014 345 31147ft 301kts
16-Jul-18 20:03 27.748129 -80.515475 345 31146ft 300kts
16-Jul-18 20:04 27.823284 -80.543307 345 31144ft 299kts
16-Jul-18 20:05 27.902049 -80.572521 345 31141ft 298kts
16-Jul-18 20:06 27.980516 -80.601661 345 31140ft 298kts
16-Jul-18 20:07 28.059107 -80.630893 345 31139ft 298kts
16-Jul-18 20:08 28.133137 -80.658472 345 31135ft 297kts
16-Jul-18 20:09 28.211397 -80.687669 345 31133ft 297kts
16-Jul-18 20:10 28.289645 -80.716912 345 31129ft 297kts
16-Jul-18 20:11 28.367733 -80.746134 345 31124ft 297kts
16-Jul-18 20:12 28.446052 -80.775485 345 31120ft 297kts
16-Jul-18 20:13 28.524174 -80.804817 345 31118ft 297kts
16-Jul-18 20:14 28.601976 -80.834094 345 31146ft 295kts
16-Jul-18 20:15 28.679559 -80.863288 345 31145ft 295kts
16-Jul-18 20:16 28.757017 -80.893870 344 31145ft 294kts
16-Jul-18 20:17 28.833553 -80.924380 344 31145ft 290kts
16-Jul-18 20:18 28.909534 -80.954717 344 31147ft 289kts
16-Jul-18 20:19 28.984948 -80.984859 344 31149ft 288kts
16-Jul-18 20:20 29.059903 -81.014826 342 31155ft 284kts
16-Jul-18 20:21 29.133127 -81.044234 341 31155ft 278kts
16-Jul-18 20:22 29.205619 -81.073390 341 31155ft 276kts
16-Jul-18 20:23 29.278009 -81.102516 341 31157ft 275kts
16-Jul-18 20:24 29.352804 -81.114032 358 31151ft 274kts
16-Jul-18 20:25 29.428729 -81.116381 358 31137ft 274kts
16-Jul-18 20:26 29.504907 -81.118628 358 31138ft 274kts
16-Jul-18 20:27 29.580659 -81.120882 358 31134ft 274kts
16-Jul-18 20:28 29.656620 -81.123133 358 31135ft 274kts
16-Jul-18 20:29 29.732815 -81.125395 359 31129ft 274kts
16-Jul-18 20:30 29.808580 -81.127645 359 31129ft 273kts
16-Jul-18 20:31 29.884521 -81.129908 358 31127ft 273kts
16-Jul-18 20:32 29.960441 -81.132176 358 31123ft 273kts
16-Jul-18 20:33 30.036382 -81.134449 358 31125ft 273kts
16-Jul-18 20:34 30.111908 -81.136703 359 31125ft 273kts
16-Jul-18 20:35 30.187986 -81.138980 359 31122ft 274kts
16-Jul-18 20:36 30.263870 -81.141261 358 31123ft 274kts
16-Jul-18 20:37 30.339931 -81.143550 358 31119ft 274kts
16-Jul-18 20:38 30.416011 -81.145840 358 31120ft 274kts
16-Jul-18 20:39 30.492078 -81.148132 359 31115ft 274kts
16-Jul-18 20:40 30.568364 -81.150437 358 31107ft 274kts
16-Jul-18 20:41 30.644343 -81.152745 358 31108ft 274kts
16-Jul-18 20:42 30.720281 -81.155042 359 31110ft 274kts
16-Jul-18 20:43 30.796223 -81.157360 358 31109ft 273kts
16-Jul-18 20:44 30.872179 -81.159683 358 31109ft 273kts
16-Jul-18 20:45 30.947909 -81.161983 358 31107ft 273kts
16-Jul-18 20:46 31.023655 -81.164295 357 31107ft 272kts
16-Jul-18 20:47 31.099244 -81.166636 357 31107ft 272kts
16-Jul-18 20:48 31.174405 -81.168950 357 31110ft 272kts
16-Jul-18 20:49 31.250253 -81.171281 357 31116ft 279kts
16-Jul-18 20:50 31.328685 -81.168142 17 31115ft 289kts
16-Jul-18 20:51 31.399698 -81.122936 28 31115ft 295kts
16-Jul-18 20:52 31.470120 -81.072902 28 31120ft 298kts
16-Jul-18 20:53 31.541036 -81.022259 28 31122ft 301kts
16-Jul-18 20:54 31.612708 -80.970981 28 31123ft 303kts
16-Jul-18 20:55 31.684624 -80.919437 28 31127ft 305kts
16-Jul-18 20:56 31.756912 -80.867530 28 31132ft 307kts
16-Jul-18 20:57 31.829323 -80.815432 28 31136ft 308kts
16-Jul-18 20:58 31.901949 -80.763091 28 31137ft 308kts
16-Jul-18 20:59 31.974977 -80.710354 28 31137ft 309kts
16-Jul-18 21:00 32.047365 -80.657981 28 31137ft 309kts
16-Jul-18 21:01 32.118896 -80.606134 28 31139ft 309kts
16-Jul-18 21:02 32.191720 -80.553254 28 31136ft 309kts
16-Jul-18 21:03 32.264520 -80.500290 28 31128ft 309kts
16-Jul-18 21:04 32.337045 -80.447417 28 31120ft 310kts
16-Jul-18 21:05 32.409737 -80.394338 28 31120ft 309kts
16-Jul-18 21:06 32.489959 -80.387373 342 31125ft 299kts
16-Jul-18 21:07 32.569798 -80.414539 341 31120ft 299kts
16-Jul-18 21:08 32.649558 -80.441706 342 31121ft 299kts
16-Jul-18 21:09 32.729646 -80.468999 342 31125ft 299kts
16-Jul-18 21:10 32.809551 -80.496249 341 31128ft 299kts
16-Jul-18 21:11 32.889047 -80.523362 342 31126ft 300kts
16-Jul-18 21:12 32.966801 -80.556860 337 31125ft 299kts
16-Jul-18 21:13 33.043826 -80.592274 337 31126ft 298kts
16-Jul-18 21:14 33.120154 -80.627298 337 31130ft 296kts
16-Jul-18 21:15 33.201515 -80.628599 7 31118ft 301kts
16-Jul-18 21:16 33.283526 -80.610886 7 31113ft 301kts
16-Jul-18 21:17 33.364908 -80.587253 12 31113ft 302kts
16-Jul-18 21:18 33.445485 -80.560808 12 31114ft 302kts
16-Jul-18 21:19 33.525772 -80.534481 11 31115ft 302kts
16-Jul-18 21:20 33.606017 -80.508178 11 31115ft 302kts
16-Jul-18 21:21 33.686099 -80.481974 11 31104ft 302kts
16-Jul-18 21:22 33.766446 -80.455717 11 31088ft 302kts
16-Jul-18 21:23 33.846453 -80.429602 11 31092ft 302kts
16-Jul-18 21:24 33.926527 -80.403479 11 31100ft 301kts
16-Jul-18 21:25 34.007223 -80.377197 11 31101ft 302kts
16-Jul-18 21:26 34.075096 -80.322522 50 31101ft 313kts
16-Jul-18 21:27 34.131056 -80.251636 44 31102ft 311kts
16-Jul-18 21:28 34.188644 -80.175157 44 31101ft 311kts
16-Jul-18 21:29 34.246085 -80.098460 44 31101ft 312kts
16-Jul-18 21:30 34.303131 -80.022107 44 31101ft 312kts
16-Jul-18 21:31 34.360772 -79.944799 44 31101ft 312kts
16-Jul-18 21:32 34.418526 -79.867160 44 31101ft 312kts
16-Jul-18 21:33 34.476410 -79.789173 44 31099ft 312kts
16-Jul-18 21:34 34.534099 -79.711272 44 31095ft 312kts
16-Jul-18 21:35 34.591860 -79.633108 44 31092ft 312kts
16-Jul-18 21:36 34.649261 -79.555247 44 31092ft 312kts
16-Jul-18 21:37 34.706885 -79.476911 44 31092ft 312kts
16-Jul-18 21:38 34.764582 -79.398295 44 31091ft 312kts
16-Jul-18 21:39 34.817885 -79.325507 45 31087ft 312kts
16-Jul-18 21:40 34.875378 -79.246828 45 31088ft 312kts
16-Jul-18 21:41 34.932763 -79.168109 45 31086ft 311kts
16-Jul-18 21:42 34.989862 -79.089619 45 31080ft 310kts
16-Jul-18 21:43 35.046572 -79.011493 45 31073ft 307kts
16-Jul-18 21:44 35.102326 -78.934474 45 31074ft 304kts
16-Jul-18 21:45 35.157267 -78.858439 45 31067ft 304kts
16-Jul-18 21:46 35.215154 -78.778152 45 29394ft 320kts
16-Jul-18 21:47 35.274067 -78.696232 45 27622ft 323kts
16-Jul-18 21:48 35.333237 -78.613758 45 25849ft 325kts
16-Jul-18 21:49 35.392103 -78.531504 45 24264ft 322kts
16-Jul-18 21:50 35.450825 -78.449261 46 22680ft 321kts
16-Jul-18 21:51 35.509279 -78.367190 46 21102ft 320kts
16-Jul-18 21:52 35.577096 -78.301095 26 19515ft 316kts
16-Jul-18 21:53 35.653656 -78.249298 27 17925ft 316kts
16-Jul-18 21:54 35.730381 -78.197115 27 16329ft 315kts
16-Jul-18 21:55 35.806890 -78.144960 28 14738ft 315kts
16-Jul-18 21:56 35.883322 -78.092741 28 13146ft 312kts
16-Jul-18 21:57 35.957628 -78.041872 28 11548ft 304kts
16-Jul-18 21:58 36.030194 -77.992099 28 9939ft 290kts
16-Jul-18 21:59 36.099116 -77.944724 29 8337ft 281kts
16-Jul-18 22:00 36.161534 -77.901742 29 6248ft 259kts
16-Jul-18 22:01 36.223007 -77.859319 29 3846ft 251kts
16-Jul-18 22:02 36.278394 -77.821020 29 2400ft 210kts
16-Jul-18 22:03 36.323558 -77.789763 29 2049ft 174kts
16-Jul-18 22:04 36.366279 -77.761740 26 1658ft 170kts
16-Jul-18 22:05 36.406542 -77.742135 11 806ft 117kts
16-Jul-18 22:06 36.429093 -77.722782 47 548ft 97kts
16-Jul-18 22:07 36.441442 -77.706763 42 259ft 13kts
16-Jul-18 22:08 36.443047 -77.704706 229 259ft 1kts
16-Jul-18 22:09 36.443041 -77.704715 229 259ft 0kts
16-Jul-18 22:10 36.443041 -77.704715 229 259ft 0kts
16-Jul-18 22:11 36.443041 -77.704715 229 259ft 0kts
16-Jul-18 22:12 36.443041 -77.704715 229 259ft 0kts

Navigation Log

Ident Type
Flight plan parsing failed, navigation log unavailable